Time;durP1;ratioP1;P1;durP2;ratioP2;P2;SDS_P1;SDS_P2;PMS_P1;PMS_P2;Temp;Humidity;BMP_temperature;BMP_pressure;BME280_temperature;BME280_humidity;BME280_pressure;Samples;Min_cycle;Max_cycle;Signal;HPM_P1;HPM_P2
2022/09/11 00:00:56;;;;;;;25.30;22.23;;;14.00;99.90;;;;;;4927460;29;20555;-80
2022/09/11 00:03:23;;;;;;;26.67;23.75;;;14.00;99.90;;;;;;4928274;29;20047;-82
2022/09/11 00:05:50;;;;;;;34.78;28.48;;;13.90;99.90;;;;;;4926560;29;20062;-81
2022/09/11 00:08:19;;;;;;;27.65;24.75;;;14.00;99.90;;;;;;4943889;28;20126;-80
2022/09/11 00:10:47;;;;;;;32.08;25.10;;;13.90;99.90;;;;;;4931338;29;20074;-80
2022/09/11 00:13:16;;;;;;;33.28;26.60;;;13.90;99.90;;;;;;4911867;29;20086;-80
2022/09/11 00:15:44;;;;;;;28.45;24.90;;;13.90;99.90;;;;;;4928298;29;20032;-81
2022/09/11 00:18:16;;;;;;;27.75;24.73;;;13.90;99.90;;;;;;4925416;29;20051;-81
2022/09/11 00:20:53;;;;;;;26.75;23.85;;;13.80;99.90;;;;;;4914485;29;20075;-81
2022/09/11 00:23:20;;;;;;;27.75;24.83;;;13.80;99.90;;;;;;4926685;29;20039;-82
2022/09/11 00:25:47;;;;;;;29.33;25.95;;;13.80;99.90;;;;;;4927767;29;20079;-81
2022/09/11 00:28:18;;;;;;;29.00;24.35;;;13.80;99.90;;;;;;4929497;29;20071;-81
2022/09/11 00:30:44;;;;;;;26.02;23.25;;;13.70;99.90;;;;;;4928602;29;20043;-81
2022/09/11 00:33:14;;;;;;;26.67;23.88;;;13.70;99.90;;;;;;4927528;29;20568;-82
2022/09/11 00:35:40;;;;;;;25.77;23.17;;;13.70;99.90;;;;;;4924215;29;20045;-79
2022/09/11 00:38:07;;;;;;;24.50;22.10;;;13.70;99.90;;;;;;4926917;29;20134;-82
2022/09/11 00:40:45;;;;;;;28.30;24.63;;;13.60;99.90;;;;;;4925403;29;20052;-82
2022/09/11 00:43:16;;;;;;;26.63;23.92;;;13.60;99.90;;;;;;4928774;29;20126;-80
2022/09/11 00:45:43;;;;;;;26.77;23.90;;;13.60;99.90;;;;;;4922849;29;20509;-78
2022/09/11 00:48:11;;;;;;;26.48;22.98;;;13.60;99.90;;;;;;4928398;29;20098;-81
2022/09/11 00:50:37;;;;;;;33.10;24.88;;;13.60;99.90;;;;;;4926476;29;20704;-82
2022/09/11 00:53:07;;;;;;;29.52;24.45;;;13.50;99.90;;;;;;4925826;29;20052;-80
2022/09/11 00:55:36;;;;;;;27.80;23.20;;;13.50;99.90;;;;;;4956717;28;20073;-81
2022/09/11 00:58:06;;;;;;;28.13;24.17;;;13.50;99.90;;;;;;4928136;29;20055;-82
2022/09/11 01:00:32;;;;;;;24.33;21.70;;;13.50;99.90;;;;;;4930387;29;20049;-80
2022/09/11 01:02:58;;;;;;;22.27;20.08;;;13.40;99.90;;;;;;4926794;29;20440;-81
2022/09/11 01:05:27;;;;;;;23.10;20.63;;;13.40;99.90;;;;;;4927150;29;20048;-81
2022/09/11 01:07:55;;;;;;;24.85;22.27;;;13.40;99.90;;;;;;4925620;29;20064;-81
2022/09/11 01:10:31;;;;;;;23.40;20.85;;;13.40;99.90;;;;;;4926094;29;20028;-80
2022/09/11 01:13:07;;;;;;;24.50;21.88;;;13.30;99.90;;;;;;4927699;29;20039;-79
2022/09/11 01:16:02;;;;;;;25.85;23.13;;;13.30;99.90;;;;;;4926664;29;21016;-81
2022/09/11 01:18:42;;;;;;;27.98;23.30;;;13.30;99.90;;;;;;4925680;29;20098;-81
2022/09/11 01:21:43;;;;;;;26.67;23.88;;;13.30;99.90;;;;;;4925221;29;20075;-81
2022/09/11 01:24:39;;;;;;;27.10;24.25;;;13.40;99.90;;;;;;4926903;29;20047;-82
2022/09/11 01:27:05;;;;;;;25.85;23.25;;;13.40;99.90;;;;;;4930156;29;20044;-80
2022/09/11 01:30:01;;;;;;;32.25;24.58;;;13.40;99.90;;;;;;4926275;29;20052;-79
2022/09/11 01:32:48;;;;;;;29.85;26.52;;;13.40;99.90;;;;;;4922758;29;20051;-81
2022/09/11 01:35:28;;;;;;;29.90;25.92;;;13.40;99.90;;;;;;4924140;29;20389;-81
2022/09/11 01:37:59;;;;;;;29.08;24.58;;;13.40;99.90;;;;;;4930266;29;20071;-81
2022/09/11 01:40:35;;;;;;;30.73;24.23;;;13.40;99.90;;;;;;4925169;29;20071;-81
2022/09/11 01:43:05;;;;;;;;;;;13.40;99.90;;;;;;4925436;29;20103;-81
2022/09/11 01:45:33;;;;;;;25.92;21.90;;;13.40;99.90;;;;;;4957328;28;20394;-81
2022/09/11 01:47:59;;;;;;;25.30;22.67;;;13.40;99.90;;;;;;4927592;29;20043;-81
2022/09/11 01:50:27;;;;;;;26.42;23.38;;;13.40;99.90;;;;;;4925265;29;20046;-80
2022/09/11 01:53:05;;;;;;;27.08;23.88;;;13.30;99.90;;;;;;4910945;29;20052;-81
2022/09/11 01:55:39;;;;;;;25.20;22.13;;;13.30;99.90;;;;;;4927978;29;20044;-82
2022/09/11 01:58:25;;;;;;;25.48;22.88;;;13.30;99.90;;;;;;4930363;29;20064;-80
2022/09/11 02:00:55;;;;;;;25.83;23.27;;;13.30;99.90;;;;;;4927457;29;20055;-81
2022/09/11 02:03:28;;;;;;;25.40;22.65;;;13.30;99.90;;;;;;4923725;29;20056;-79
2022/09/11 02:06:02;;;;;;;26.90;24.05;;;13.30;99.90;;;;;;4926333;29;20059;-81
2022/09/11 02:08:36;;;;;;;29.25;25.20;;;13.30;99.90;;;;;;4927788;29;20071;-81
2022/09/11 02:11:06;;;;;;;28.83;25.70;;;13.40;99.90;;;;;;4926356;29;20048;-81
2022/09/11 02:13:38;;;;;;;28.85;24.50;;;13.40;99.90;;;;;;4922938;29;20477;-81
2022/09/11 02:16:14;;;;;;;29.33;26.17;;;13.50;99.90;;;;;;4924496;29;20040;-81
2022/09/11 02:18:47;;;;;;;28.95;25.92;;;13.40;99.90;;;;;;4927883;29;20059;-79
2022/09/11 02:21:12;;;;;;;28.60;25.27;;;13.50;99.90;;;;;;4926658;29;20094;-82
2022/09/11 02:23:38;;;;;;;27.00;24.23;;;13.50;99.90;;;;;;4926481;29;20044;-81
2022/09/11 02:26:08;;;;;;;26.65;23.95;;;13.50;99.90;;;;;;4923046;29;20059;-81
2022/09/11 02:28:34;;;;;;;26.02;23.52;;;13.50;99.90;;;;;;4923313;29;20032;-79
2022/09/11 02:31:02;;;;;;;25.58;23.00;;;13.50;99.90;;;;;;4924077;29;20043;-81
2022/09/11 02:33:35;;;;;;;35.08;25.13;;;13.40;99.90;;;;;;4925680;29;20043;-81
2022/09/11 02:36:30;;;;;;;25.67;22.90;;;13.50;99.90;;;;;;4922915;29;20062;-81
2022/09/11 02:38:55;;;;;;;22.95;20.55;;;13.40;99.90;;;;;;4920755;29;20588;-80
2022/09/11 02:41:36;;;;;;;25.80;23.08;;;13.40;99.90;;;;;;4925969;29;20047;-82
2022/09/11 02:44:18;;;;;;;24.23;21.33;;;13.30;99.90;;;;;;4923511;29;20088;-80
2022/09/11 02:47:25;;;;;;;23.77;21.48;;;13.30;99.90;;;;;;4920904;29;20071;-78
2022/09/11 02:50:32;;;;;;;25.13;22.70;;;13.30;99.90;;;;;;4904863;29;20051;-81
2022/09/11 02:53:09;;;;;;;25.23;22.73;;;13.30;99.90;;;;;;4862104;29;20056;-81
2022/09/11 02:56:04;;;;;;;22.90;20.63;;;13.30;99.90;;;;;;4932165;29;20043;-81
2022/09/11 02:58:45;;;;;;;23.55;21.17;;;13.30;99.90;;;;;;4953901;28;20404;-81
2022/09/11 03:01:10;;;;;;;22.63;20.27;;;13.30;99.90;;;;;;4925928;29;20563;-80
2022/09/11 03:03:46;;;;;;;20.65;18.70;;;13.30;99.90;;;;;;4925408;29;20039;-82
2022/09/11 03:06:16;;;;;;;21.00;17.92;;;13.30;99.90;;;;;;4928118;29;20056;-81
2022/09/11 03:08:42;;;;;;;19.73;17.70;;;13.30;99.90;;;;;;4926308;29;20059;-81
2022/09/11 03:11:08;;;;;;;18.60;16.70;;;13.20;99.90;;;;;;4928588;29;20095;-81
2022/09/11 03:13:35;;;;;;;24.45;19.13;;;13.20;99.90;;;;;;4919106;29;20043;-83
2022/09/11 03:16:01;;;;;;;23.38;16.52;;;13.20;99.90;;;;;;4915276;29;20048;-79
2022/09/11 03:18:27;;;;;;;14.77;13.48;;;13.10;99.90;;;;;;4927295;29;20408;-81
2022/09/11 03:20:53;;;;;;;16.75;13.82;;;13.10;99.90;;;;;;4922660;29;20044;-78
2022/09/11 03:23:18;;;;;;;16.55;15.07;;;13.00;99.90;;;;;;4925159;29;20040;-81
2022/09/11 03:25:44;;;;;;;18.30;16.70;;;13.00;99.90;;;;;;4926899;29;20048;-79
2022/09/11 03:28:10;;;;;;;18.40;16.08;;;13.00;99.90;;;;;;4933192;29;20043;-79
2022/09/11 03:30:35;;;;;;;19.70;16.88;;;13.00;99.90;;;;;;4933441;29;20035;-81
2022/09/11 03:33:01;;;;;;;18.83;17.02;;;13.10;99.90;;;;;;4925636;29;20062;-81
2022/09/11 03:35:27;;;;;;;18.90;17.10;;;13.10;99.90;;;;;;4931548;29;20077;-81
2022/09/11 03:37:56;;;;;;;18.58;16.77;;;13.00;99.90;;;;;;4925023;29;20048;-81
2022/09/11 03:40:22;;;;;;;17.88;16.15;;;13.00;99.90;;;;;;4934430;29;20492;-80
2022/09/11 03:42:48;;;;;;;19.65;16.70;;;13.00;99.90;;;;;;4917109;29;20071;-79
2022/09/11 03:45:13;;;;;;;59.92;18.80;;;13.00;99.90;;;;;;4927542;29;20075;-81
2022/09/11 03:47:40;;;;;;;39.63;17.80;;;12.90;99.90;;;;;;4926794;29;20130;-81
2022/09/11 03:50:07;;;;;;;22.52;17.48;;;12.90;99.90;;;;;;4929537;29;20050;-81
2022/09/11 03:52:33;;;;;;;19.45;15.40;;;12.90;99.90;;;;;;4926008;29;20040;-81
2022/09/11 03:54:59;;;;;;;17.38;14.65;;;12.90;99.90;;;;;;4927271;29;20070;-80
2022/09/11 03:57:25;;;;;;;14.23;12.93;;;12.90;99.90;;;;;;4927734;29;20040;-81
2022/09/11 03:59:50;;;;;;;14.40;13.10;;;12.80;99.90;;;;;;4929903;29;20155;-80
2022/09/11 04:02:17;;;;;;;12.77;11.68;;;12.80;99.90;;;;;;4926992;29;20044;-81
2022/09/11 04:04:42;;;;;;;10.27;9.48;;;12.70;99.90;;;;;;4924797;29;20474;-80
2022/09/11 04:07:08;;;;;;;13.30;12.00;;;12.70;99.90;;;;;;4926507;29;20106;-81
2022/09/11 04:09:33;;;;;;;12.00;11.00;;;12.70;99.90;;;;;;4928491;29;20046;-81
2022/09/11 04:11:59;;;;;;;10.50;9.70;;;12.60;99.90;;;;;;4928151;29;20040;-79
2022/09/11 04:14:24;;;;;;;10.77;9.98;;;12.60;99.90;;;;;;4926543;29;20135;-81
2022/09/11 04:16:52;;;;;;;9.18;8.25;;;12.50;99.90;;;;;;4925198;29;20130;-81
2022/09/11 04:19:20;;;;;;;8.25;7.65;;;12.50;99.90;;;;;;4924619;29;20090;-79
2022/09/11 04:21:45;;;;;;;7.57;7.07;;;12.40;99.90;;;;;;4958665;28;20472;-81
2022/09/11 04:24:11;;;;;;;9.32;8.63;;;12.40;99.90;;;;;;4927194;29;20043;-81
2022/09/11 04:26:36;;;;;;;6.65;6.15;;;12.40;99.90;;;;;;4927848;29;20046;-81
2022/09/11 04:29:02;;;;;;;7.40;6.60;;;12.40;99.90;;;;;;4928310;29;20051;-81
2022/09/11 04:31:28;;;;;;;8.77;8.02;;;12.40;99.90;;;;;;4928743;29;21026;-80
2022/09/11 04:33:54;;;;;;;9.38;7.47;;;12.40;99.90;;;;;;4928986;29;20044;-81
2022/09/11 04:36:21;;;;;;;7.85;7.15;;;12.50;99.90;;;;;;4926089;29;20043;-78
2022/09/11 04:38:47;;;;;;;8.25;7.55;;;12.50;99.90;;;;;;4927824;29;20091;-82
2022/09/11 04:41:15;;;;;;;9.32;8.40;;;12.50;99.90;;;;;;4927979;29;20131;-81
2022/09/11 04:43:41;;;;;;;8.85;8.05;;;12.50;99.90;;;;;;4926926;29;20086;-81
2022/09/11 04:46:10;;;;;;;9.48;8.57;;;12.50;99.90;;;;;;4931699;29;20059;-81
2022/09/11 04:48:37;;;;;;;9.20;8.40;;;12.60;99.90;;;;;;4925414;29;20047;-81
2022/09/11 04:51:07;;;;;;;9.88;8.90;;;12.60;99.90;;;;;;4921926;29;20048;-82
2022/09/11 04:53:36;;;;;;;8.93;8.20;;;12.60;99.90;;;;;;4922263;29;20035;-81
2022/09/11 04:56:06;;;;;;;9.55;8.70;;;12.60;99.90;;;;;;4924669;29;20604;-81
2022/09/11 04:58:33;;;;;;;9.70;8.77;;;12.60;99.90;;;;;;4924596;29;20067;-81
2022/09/11 05:00:59;;;;;;;10.82;9.48;;;13.00;99.90;;;;;;4922787;29;20215;-80
2022/09/11 05:03:24;;;;;;;10.98;9.90;;;12.60;99.90;;;;;;4925744;29;20429;-81
2022/09/11 05:05:50;;;;;;;9.93;9.02;;;12.70;99.90;;;;;;4924742;29;20111;-81
2022/09/11 05:08:19;;;;;;;10.57;9.57;;;12.70;99.90;;;;;;4923310;29;20036;-81
2022/09/11 05:10:45;;;;;;;10.40;9.30;;;12.70;99.90;;;;;;4954788;28;20564;-82
2022/09/11 05:13:11;;;;;;;10.27;9.30;;;12.70;99.90;;;;;;4923605;29;20398;-81
2022/09/11 05:15:37;;;;;;;10.15;9.20;;;12.80;99.90;;;;;;4922326;29;20051;-77
2022/09/11 05:18:03;;;;;;;9.18;8.38;;;12.80;99.90;;;;;;4923285;29;20048;-81
2022/09/11 05:20:29;;;;;;;8.95;8.05;;;12.90;99.90;;;;;;4921691;29;20062;-82
2022/09/11 05:22:55;;;;;;;9.23;8.32;;;12.90;99.90;;;;;;4922856;29;20044;-80
2022/09/11 05:25:21;;;;;;;9.13;8.32;;;12.90;99.90;;;;;;4922009;29;20111;-80
2022/09/11 05:27:47;;;;;;;8.88;8.00;;;13.00;99.90;;;;;;4922853;29;20497;-81
2022/09/11 05:30:13;;;;;;;9.45;8.55;;;13.00;99.90;;;;;;4924883;29;20059;-81
2022/09/11 05:32:38;;;;;;;10.95;10.05;;;13.00;99.90;;;;;;4941345;28;20075;-82
2022/09/11 05:35:06;;;;;;;9.98;9.02;;;13.10;99.90;;;;;;4920061;29;20052;-84
2022/09/11 05:37:33;;;;;;;12.45;11.40;;;13.10;99.90;;;;;;4903575;29;20043;-83
2022/09/11 05:39:59;;;;;;;12.50;11.30;;;13.30;99.90;;;;;;4905928;29;20055;-83
2022/09/11 05:42:27;;;;;;;13.23;11.48;;;13.80;99.90;;;;;;4904526;29;20032;-83
2022/09/11 05:45:03;;;;;;;11.63;10.63;;;14.00;99.90;;;;;;4904212;29;20046;-83
2022/09/11 05:47:57;;;;;;;11.32;10.40;;;13.60;99.90;;;;;;4907086;29;20058;-83
2022/09/11 05:50:23;;;;;;;10.23;9.30;;;14.10;99.90;;;;;;4918842;29;20130;-82
2022/09/11 05:52:49;;;;;;;9.40;8.35;;;14.40;99.90;;;;;;4903911;29;20646;-82
2022/09/11 05:55:15;;;;;;;8.40;6.20;;;15.10;99.90;;;;;;4927733;29;20369;-82
2022/09/11 05:57:41;;;;;;;5.45;5.05;;;15.70;99.90;;;;;;4928860;29;20044;-83
2022/09/11 06:00:12;;;;;;;4.90;4.53;;;16.40;99.90;;;;;;4923552;29;20498;-83
2022/09/11 06:02:37;;;;;;;5.32;4.88;;;17.20;99.90;;;;;;4918799;29;20048;-82
2022/09/11 06:05:03;;;;;;;4.75;4.35;;;18.10;99.90;;;;;;4923441;29;20048;-80
2022/09/11 06:07:29;;;;;;;5.07;4.68;;;19.00;99.90;;;;;;4926299;29;20039;-81
2022/09/11 06:09:56;;;;;;;4.28;3.90;;;19.80;99.90;;;;;;4923181;29;20048;-81
2022/09/11 06:12:21;;;;;;;5.22;4.82;;;20.50;99.90;;;;;;4917907;29;20094;-82
2022/09/11 06:14:47;;;;;;;4.40;4.00;;;21.20;99.90;;;;;;4933469;28;20540;-80
2022/09/11 06:17:13;;;;;;;5.80;4.63;;;22.00;99.90;;;;;;4938067;28;20106;-82
2022/09/11 06:19:39;;;;;;;4.70;4.40;;;22.60;99.90;;;;;;4925014;29;20040;-80
2022/09/11 06:22:05;;;;;;;4.32;4.03;;;23.10;99.90;;;;;;4922882;29;20054;-84
2022/09/11 06:24:30;;;;;;;4.57;4.18;;;23.60;99.90;;;;;;4926024;29;20079;-81
2022/09/11 06:26:56;;;;;;;5.30;4.55;;;24.10;99.90;;;;;;4928393;29;20038;-82
2022/09/11 06:29:21;;;;;;;4.28;3.92;;;24.60;99.90;;;;;;4927799;29;20068;-81
2022/09/11 06:31:50;;;;;;;5.32;4.85;;;25.10;99.90;;;;;;4925553;29;20087;-81
2022/09/11 06:34:18;;;;;;;5.20;4.70;;;25.60;99.90;;;;;;4927107;29;20043;-84
2022/09/11 06:36:47;;;;;;;5.00;4.60;;;25.50;99.90;;;;;;4914079;29;20074;-83
2022/09/11 06:39:13;;;;;;;5.43;5.03;;;25.20;99.90;;;;;;4906581;29;20040;-83
2022/09/11 06:41:38;;;;;;;6.13;5.60;;;25.10;99.90;;;;;;4925224;29;20039;-83
2022/09/11 06:44:04;;;;;;;6.78;6.05;;;24.70;99.90;;;;;;4928022;28;20587;-80
2022/09/11 06:46:29;;;;;;;5.45;4.95;;;23.90;99.90;;;;;;4928797;29;20055;-81
2022/09/11 06:48:56;;;;;;;6.45;5.82;;;23.10;99.90;;;;;;4928172;29;20153;-82
2022/09/11 06:51:22;;;;;;;6.35;5.78;;;23.20;99.90;;;;;;4924325;29;20051;-82
2022/09/11 06:53:51;;;;;;;6.75;6.03;;;23.90;99.90;;;;;;4923988;29;20127;-82
2022/09/11 06:56:17;;;;;;;7.35;5.53;;;24.50;99.90;;;;;;4923428;29;20071;-79
2022/09/11 06:58:45;;;;;;;6.32;5.72;;;24.40;99.90;;;;;;4923810;29;20090;-82
2022/09/11 07:01:13;;;;;;;5.65;5.05;;;23.80;99.90;;;;;;4924903;29;20048;-81
2022/09/11 07:03:44;;;;;;;5.85;5.35;;;23.10;99.90;;;;;;4927300;29;20122;-82
2022/09/11 07:06:10;;;;;;;6.35;4.75;;;22.60;99.90;;;;;;4922899;29;20079;-79
2022/09/11 07:08:36;;;;;;;6.68;5.95;;;22.10;99.90;;;;;;4924328;29;20039;-81
2022/09/11 07:11:03;;;;;;;6.55;5.32;;;21.60;99.90;;;;;;4925613;29;20044;-80
2022/09/11 07:13:30;;;;;;;5.40;4.90;;;21.30;99.90;;;;;;4930615;29;20047;-81
2022/09/11 07:16:04;;;;;;;6.00;5.32;;;21.00;99.90;;;;;;4953764;28;20048;-80
2022/09/11 07:18:38;;;;;;;5.07;4.68;;;20.80;99.90;;;;;;4923863;29;20500;-81
2022/09/11 07:21:10;;;;;;;6.82;5.15;;;20.70;99.90;;;;;;4925092;29;20115;-80
2022/09/11 07:23:36;;;;;;;5.90;5.38;;;20.50;99.90;;;;;;4923673;29;20060;-80
2022/09/11 07:26:10;;;;;;;5.60;4.82;;;20.30;99.90;;;;;;4915350;29;20135;-82
2022/09/11 07:28:38;;;;;;;8.20;5.15;;;20.20;99.90;;;;;;4926213;29;20111;-82
2022/09/11 07:31:14;;;;;;;5.80;5.22;;;19.90;99.90;;;;;;4924437;29;20040;-82
2022/09/11 07:33:45;;;;;;;5.78;5.28;;;19.80;99.90;;;;;;4908568;29;20742;-81
2022/09/11 07:36:12;;;;;;;5.22;4.75;;;19.70;99.90;;;;;;4925009;29;20044;-82
2022/09/11 07:38:39;;;;;;;6.70;6.00;;;19.60;99.90;;;;;;4908993;29;20044;-82
2022/09/11 07:41:07;;;;;;;5.68;4.88;;;19.50;99.90;;;;;;4917829;29;20175;-82
2022/09/11 07:43:34;;;;;;;6.90;5.22;;;19.50;99.90;;;;;;4922033;29;20503;-83
2022/09/11 07:46:00;;;;;;;7.95;6.20;;;19.50;99.90;;;;;;4922036;29;20059;-82
2022/09/11 07:48:28;;;;;;;6.35;5.68;;;19.50;99.90;;;;;;4921628;29;20040;-84
2022/09/11 07:50:59;;;;;;;7.65;6.53;;;19.50;99.90;;;;;;4923748;29;20051;-82
2022/09/11 07:53:25;;;;;;;6.43;5.15;;;19.60;99.90;;;;;;4924286;29;20051;-84
2022/09/11 07:55:51;;;;;;;9.00;5.63;;;19.60;99.90;;;;;;4940275;28;20444;-81
2022/09/11 07:58:17;;;;;;;8.98;6.57;;;19.60;99.90;;;;;;4927225;29;20051;-83
2022/09/11 08:00:42;;;;;;;7.28;6.63;;;19.60;99.90;;;;;;4924002;29;20044;-82
2022/09/11 08:03:09;;;;;;;4.95;4.55;;;19.70;99.90;;;;;;4927936;29;20032;-82
2022/09/11 08:05:35;;;;;;;6.70;5.30;;;19.80;99.90;;;;;;4913065;29;20386;-83
2022/09/11 08:08:01;;;;;;;6.97;5.30;;;19.80;99.90;;;;;;4926852;29;20058;-82
2022/09/11 08:10:26;;;;;;;7.43;5.32;;;19.80;99.90;;;;;;4928488;29;20115;-83
2022/09/11 08:12:52;;;;;;;4.30;4.00;;;19.90;99.90;;;;;;4916199;29;20054;-81
2022/09/11 08:15:20;;;;;;;9.50;4.80;;;20.10;99.90;;;;;;4929577;29;20035;-82
2022/09/11 08:17:46;;;;;;;6.90;4.38;;;20.30;99.90;;;;;;4915273;29;20127;-83
2022/09/11 08:20:21;;;;;;;7.45;4.10;;;20.60;99.90;;;;;;4926974;29;20047;-86
2022/09/11 08:22:47;;;;;;;6.82;4.07;;;21.10;99.90;;;;;;4912598;29;20032;-83
2022/09/11 08:25:12;;;;;;;4.80;4.07;;;21.20;99.90;;;;;;4925004;29;20060;-84
2022/09/11 08:27:38;;;;;;;5.22;4.70;;;21.30;99.90;;;;;;4924631;29;20100;-81
2022/09/11 08:30:04;;;;;;;5.70;4.30;;;21.40;99.90;;;;;;4924847;29;20508;-83
2022/09/11 08:32:29;;;;;;;6.32;4.63;;;21.60;99.90;;;;;;4926205;29;20040;-83
2022/09/11 08:34:55;;;;;;;5.85;4.05;;;21.60;99.90;;;;;;4926728;29;20048;-85
2022/09/11 08:37:21;;;;;;;6.25;3.78;;;21.60;99.90;;;;;;4923955;29;20084;-81
2022/09/11 08:39:46;;;;;;;5.65;3.13;;;21.70;99.90;;;;;;4927138;29;20110;-83
2022/09/11 08:42:15;;;;;;;6.80;3.65;;;21.70;99.90;;;;;;4930378;29;20118;-83
2022/09/11 08:44:47;;;;;;;3.60;2.72;;;21.70;99.90;;;;;;4927388;29;20182;-84
2022/09/11 08:47:18;;;;;;;4.50;3.25;;;21.70;99.90;;;;;;4923184;29;20047;-84
2022/09/11 08:49:53;;;;;;;5.03;2.95;;;21.70;99.90;;;;;;4923503;29;20047;-84
2022/09/11 08:52:19;;;;;;;3.47;2.25;;;21.70;99.90;;;;;;4929478;29;20044;-83
2022/09/11 08:54:49;;;;;;;5.40;3.00;;;21.60;99.90;;;;;;4923822;29;20043;-84
2022/09/11 08:57:56;;;;;;;3.63;3.15;;;21.50;99.90;;;;;;4925638;29;20044;-82
2022/09/11 09:00:38;;;;;;;;;;;21.40;99.90;;;;;;4923809;29;20565;-85
2022/09/11 09:03:47;;;;;;;7.63;1.50;;;21.30;99.90;;;;;;4926359;28;19930;-86
2022/09/11 09:06:24;;;;;;;2.60;1.40;;;21.30;99.90;;;;;;4906526;29;20048;-84
2022/09/11 09:09:22;;;;;;;2.80;1.65;;;21.30;99.90;;;;;;4930110;29;20068;-83
2022/09/11 09:20:10;;;;;;;2.00;0.93;;;21.20;99.90;;;;;;4881076;29;20082;-85
2022/09/11 09:30:44;;;;;;;2.67;1.50;;;22.60;99.90;;;;;;4900789;29;20068;-86
2022/09/11 09:33:19;;;;;;;4.03;1.30;;;23.10;99.90;;;;;;4875737;29;20044;-85
2022/09/11 09:35:55;;;;;;;3.60;1.02;;;23.10;99.90;;;;;;4872080;29;20044;-87
2022/09/11 10:04:41;;;;;;;3.58;1.77;;;23.90;99.90;;;;;;4924227;29;20099;-84
2022/09/11 10:07:09;;;;;;;3.92;1.08;;;24.30;99.90;;;;;;4936983;28;20118;-85
2022/09/11 10:09:50;;;;;;;3.10;1.50;;;24.30;99.90;;;;;;4916244;29;20139;-86
2022/09/11 10:12:23;;;;;;;2.35;1.00;;;23.90;99.90;;;;;;4922604;29;21400;-85
2022/09/11 10:15:16;;;;;;;3.20;1.10;;;23.60;99.90;;;;;;4909476;29;20064;-86
2022/09/11 10:17:42;;;;;;;2.72;1.00;;;23.90;99.90;;;;;;4910335;29;20057;-83
2022/09/11 10:20:24;;;;;;;2.00;0.70;;;24.00;99.90;;;;;;4922384;29;20039;-84
2022/09/11 10:22:53;;;;;;;2.05;0.80;;;24.20;99.90;;;;;;4907931;29;20074;-84
2022/09/11 10:25:25;;;;;;;1.63;0.95;;;24.50;99.90;;;;;;4910681;29;20044;-85
2022/09/11 10:32:49;;;;;;;2.38;0.90;;;24.30;99.90;;;;;;4921772;29;20115;-87
2022/09/11 10:43:59;;;;;;;1.83;0.55;;;23.30;99.90;;;;;;4904504;29;20055;-86
2022/09/11 10:50:44;;;;;;;1.58;0.50;;;22.80;99.90;;;;;;4915240;29;20038;-83
2022/09/11 10:53:21;;;;;;;2.33;0.65;;;22.80;99.90;;;;;;4921520;29;20048;-83
2022/09/11 10:56:02;;;;;;;1.75;0.40;;;23.30;99.90;;;;;;4916174;29;20116;-84
2022/09/11 10:58:33;;;;;;;1.00;0.50;;;23.40;99.90;;;;;;4911675;29;20036;-84
2022/09/11 11:01:04;;;;;;;3.67;1.25;;;23.30;99.90;;;;;;4930523;28;20106;-86
2022/09/11 11:03:33;;;;;;;1.48;0.60;;;23.40;99.90;;;;;;4901538;29;20055;-85
2022/09/11 11:06:47;;;;;;;2.63;0.50;;;23.50;99.90;;;;;;4904258;29;20094;-86
2022/09/11 11:10:14;;;;;;;2.65;0.65;;;23.30;99.90;;;;;;4867094;29;20132;-86
2022/09/11 11:13:13;;;;;;;2.53;0.65;;;23.50;99.90;;;;;;4871300;29;20052;-84
2022/09/11 11:16:00;;;;;;;1.85;0.60;;;23.90;99.90;;;;;;4892430;29;20055;-85
2022/09/11 11:19:01;;;;;;;2.75;0.77;;;24.30;99.90;;;;;;4920158;29;20131;-87
2022/09/11 11:21:54;;;;;;;2.00;0.80;;;24.50;99.90;;;;;;4905605;29;20086;-83
2022/09/11 11:24:53;;;;;;;3.13;1.23;;;24.80;99.90;;;;;;4921543;29;20873;-84
2022/09/11 11:27:38;;;;;;;2.33;0.85;;;25.10;99.90;;;;;;4922271;29;20098;-85
2022/09/11 11:30:10;;;;;;;2.75;0.90;;;25.10;99.90;;;;;;4923126;29;20099;-84
2022/09/11 11:32:43;;;;;;;2.63;1.25;;;25.00;99.90;;;;;;4922099;29;20070;-85
2022/09/11 11:35:34;;;;;;;2.53;0.98;;;24.90;99.90;;;;;;4915352;29;20754;-85
2022/09/11 11:38:15;;;;;;;1.58;0.68;;;24.60;99.90;;;;;;4941654;28;20397;-84
2022/09/11 11:40:45;;;;;;;2.63;0.68;;;24.40;99.90;;;;;;4907680;29;20059;-85
2022/09/11 11:43:16;;;;;;;1.85;0.60;;;24.10;99.90;;;;;;4912565;29;20123;-85
2022/09/11 11:46:09;;;;;;;2.85;0.73;;;24.00;99.90;;;;;;4914875;29;20047;-84
2022/09/11 11:48:43;;;;;;;2.33;0.98;;;23.90;99.90;;;;;;4927524;29;20154;-84
2022/09/11 11:51:16;;;;;;;1.13;0.40;;;23.80;99.90;;;;;;4920489;29;20127;-85
2022/09/11 11:53:47;;;;;;;1.08;0.60;;;23.90;99.90;;;;;;4929996;29;20058;-84
2022/09/11 11:56:16;;;;;;;5.07;0.80;;;24.10;99.90;;;;;;4924176;29;20485;-85
2022/09/11 11:58:57;;;;;;;2.83;0.75;;;24.20;99.90;;;;;;4915630;29;20044;-84
2022/09/11 12:01:47;;;;;;;0.77;0.30;;;23.90;99.90;;;;;;4926008;29;20039;-85
2022/09/11 12:04:43;;;;;;;2.67;0.60;;;23.90;99.90;;;;;;4921294;29;20398;-85
2022/09/11 12:07:40;;;;;;;2.00;0.60;;;23.90;99.90;;;;;;4923477;29;20071;-83
2022/09/11 12:10:21;;;;;;;4.65;0.95;;;24.00;99.90;;;;;;4907539;29;20622;-85
2022/09/11 12:13:40;;;;;;;1.92;0.70;;;24.10;99.90;;;;;;4914782;29;20138;-83
2022/09/11 12:16:16;;;;;;;2.97;0.95;;;24.20;99.90;;;;;;4908460;29;20059;-84
2022/09/11 12:19:00;;;;;;;;;;;24.40;99.90;;;;;;4926805;29;20043;-85
2022/09/11 12:21:25;;;;;;;5.00;0.95;;;24.30;99.90;;;;;;4925511;29;19919;-84
2022/09/11 12:23:57;;;;;;;1.83;0.40;;;24.30;99.90;;;;;;4922570;29;20051;-84
2022/09/11 12:26:24;;;;;;;4.50;0.90;;;24.40;99.90;;;;;;4925466;29;20050;-84
2022/09/11 12:29:10;;;;;;;2.20;1.10;;;24.70;99.90;;;;;;4922119;29;20068;-85
2022/09/11 12:31:48;;;;;;;1.92;0.57;;;25.00;99.90;;;;;;4925455;29;20054;-85
2022/09/11 12:34:16;;;;;;;2.53;0.88;;;24.90;99.90;;;;;;4925645;29;20126;-85
2022/09/11 12:37:05;;;;;;;1.83;1.00;;;24.60;99.90;;;;;;4924518;29;20456;-82
2022/09/11 12:39:37;;;;;;;2.25;0.77;;;24.40;99.90;;;;;;4955891;28;20506;-85
2022/09/11 12:42:26;;;;;;;2.47;0.65;;;24.30;99.90;;;;;;4922145;29;20075;-84
2022/09/11 12:44:53;;;;;;;2.05;0.80;;;24.20;99.90;;;;;;4924319;29;20043;-85
2022/09/11 12:47:38;;;;;;;4.68;0.82;;;24.30;99.90;;;;;;4923470;29;20040;-85
2022/09/11 12:50:03;;;;;;;2.20;0.70;;;23.90;99.90;;;;;;4924685;29;20063;-85
2022/09/11 12:52:44;;;;;;;4.85;0.55;;;23.70;99.90;;;;;;4925191;29;20055;-83
2022/09/11 12:55:35;;;;;;;3.38;0.85;;;24.10;99.90;;;;;;4923390;29;20040;-84
2022/09/11 12:58:24;;;;;;;1.27;0.47;;;23.70;99.90;;;;;;4930161;29;20080;-85
2022/09/11 13:01:04;;;;;;;1.35;0.70;;;23.60;99.90;;;;;;4924139;29;20091;-85
2022/09/11 13:03:31;;;;;;;5.35;1.60;;;23.60;99.90;;;;;;4928720;29;20069;-84
2022/09/11 13:06:08;;;;;;;4.00;0.63;;;23.70;99.90;;;;;;4925570;29;20374;-85
2022/09/11 13:08:58;;;;;;;1.70;0.80;;;23.70;99.90;;;;;;4924067;29;20525;-83
2022/09/11 13:11:38;;;;;;;1.75;0.57;;;24.00;99.90;;;;;;4925245;29;20047;-86
2022/09/11 13:14:05;;;;;;;2.25;0.63;;;23.90;99.90;;;;;;4924501;29;20433;-85
2022/09/11 13:16:35;;;;;;;3.65;0.75;;;23.80;99.90;;;;;;4923041;29;20040;-83
2022/09/11 13:19:15;;;;;;;2.08;0.57;;;23.80;99.90;;;;;;4954543;28;20047;-85
2022/09/11 13:21:43;;;;;;;1.95;0.55;;;23.70;99.90;;;;;;4925422;29;20048;-85
2022/09/11 13:24:32;;;;;;;1.58;0.60;;;23.70;99.90;;;;;;4921391;29;20509;-84
2022/09/11 13:27:23;;;;;;;3.00;0.68;;;23.80;99.90;;;;;;4925692;29;20446;-85
2022/09/11 13:30:01;;;;;;;3.28;0.65;;;23.80;99.90;;;;;;4935932;29;20071;-84
2022/09/11 13:32:35;;;;;;;1.70;0.60;;;23.70;99.90;;;;;;4920340;29;20788;-85
2022/09/11 13:35:08;;;;;;;3.90;0.73;;;23.80;99.90;;;;;;4912069;29;20082;-85
2022/09/11 13:37:39;;;;;;;2.38;0.50;;;23.70;99.90;;;;;;4921336;29;20048;-84
2022/09/11 13:40:06;;;;;;;2.22;0.85;;;23.80;99.90;;;;;;4923081;29;20063;-85
2022/09/11 13:42:34;;;;;;;2.67;0.50;;;23.50;99.90;;;;;;4923026;29;20083;-84
2022/09/11 13:45:01;;;;;;;2.60;0.80;;;23.50;99.90;;;;;;4907617;29;20563;-85
2022/09/11 13:47:30;;;;;;;3.25;1.00;;;23.60;99.90;;;;;;4922414;29;20040;-84
2022/09/11 13:49:59;;;;;;;2.30;0.98;;;23.70;99.90;;;;;;4925446;29;20043;-82
2022/09/11 13:52:29;;;;;;;3.67;0.70;;;23.70;99.90;;;;;;4936964;28;20071;-85
2022/09/11 13:54:58;;;;;;;2.25;0.73;;;23.70;99.90;;;;;;4924523;29;20054;-84
2022/09/11 13:57:26;;;;;;;4.82;0.85;;;23.60;99.90;;;;;;4922790;29;20162;-84
2022/09/11 13:59:55;;;;;;;5.95;0.85;;;23.60;99.90;;;;;;4923794;29;20044;-83
2022/09/11 14:02:33;;;;;;;2.10;0.50;;;23.60;99.90;;;;;;4921457;29;20123;-83
2022/09/11 14:05:14;;;;;;;2.75;0.70;;;23.10;99.90;;;;;;4934306;29;20043;-84
2022/09/11 14:07:56;;;;;;;2.45;0.80;;;22.80;99.90;;;;;;4923523;29;20047;-84